Time;durP1;ratioP1;P1;durP2;ratioP2;P2;SDS_P1;SDS_P2;PMS_P1;PMS_P2;Temp;Humidity;BMP_temperature;BMP_pressure;BME280_temperature;BME280_humidity;BME280_pressure;Samples;Min_cycle;Max_cycle;Signal;HPM_P1;HPM_P2
2022/07/18 00:02:03;;;;;;;0.65;0.40;;;15.40;99.90;;;;;;5029276;28;20201;-76
2022/07/18 00:04:34;;;;;;;0.65;0.50;;;15.30;99.90;;;;;;5051851;28;20196;-75
2022/07/18 00:07:06;;;;;;;0.70;0.40;;;15.40;99.90;;;;;;5050606;28;20228;-75
2022/07/18 00:09:39;;;;;;;2.13;0.65;;;15.40;99.90;;;;;;5041655;28;20194;-79
2022/07/18 00:12:11;;;;;;;1.13;0.32;;;15.60;99.90;;;;;;5033419;28;20197;-78
2022/07/18 00:14:41;;;;;;;0.85;0.40;;;15.60;99.90;;;;;;5050619;28;20258;-76
2022/07/18 00:17:12;;;;;;;2.25;0.40;;;15.60;99.90;;;;;;5046692;28;20239;-76
2022/07/18 00:19:43;;;;;;;0.88;0.40;;;15.60;99.90;;;;;;5047037;28;20218;-75
2022/07/18 00:22:14;;;;;;;2.00;0.40;;;15.60;99.90;;;;;;5052314;28;20200;-75
2022/07/18 00:24:46;;;;;;;2.33;0.30;;;15.50;99.90;;;;;;5051858;28;20670;-76
2022/07/18 00:27:18;;;;;;;0.55;0.40;;;15.50;99.90;;;;;;5051039;28;20208;-76
2022/07/18 00:29:48;;;;;;;1.02;0.38;;;15.50;99.90;;;;;;5050109;28;20201;-76
2022/07/18 00:32:19;;;;;;;0.95;0.35;;;15.60;99.90;;;;;;5050866;28;20189;-75
2022/07/18 00:34:50;;;;;;;2.00;0.38;;;15.60;99.90;;;;;;5041470;28;20193;-75
2022/07/18 00:37:21;;;;;;;1.95;0.68;;;15.80;99.90;;;;;;5047962;28;20216;-75
2022/07/18 00:39:54;;;;;;;2.17;0.50;;;15.80;99.90;;;;;;5050816;28;20201;-76
2022/07/18 00:42:25;;;;;;;0.47;0.30;;;15.80;99.90;;;;;;5051583;28;20236;-77
2022/07/18 00:44:57;;;;;;;0.45;0.38;;;15.70;99.90;;;;;;5051695;28;20563;-77
2022/07/18 00:47:28;;;;;;;0.98;0.47;;;15.70;99.20;;;;;;5050633;28;20196;-77
2022/07/18 00:50:00;;;;;;;1.65;0.40;;;15.70;99.90;;;;;;5049122;28;20189;-76
2022/07/18 00:52:30;;;;;;;0.55;0.30;;;15.70;99.00;;;;;;5044049;28;20661;-76
2022/07/18 00:55:03;;;;;;;1.60;0.30;;;15.70;96.90;;;;;;5046526;28;20203;-76
2022/07/18 00:57:34;;;;;;;2.30;0.40;;;15.70;95.90;;;;;;5050629;28;20224;-77
2022/07/18 01:02:53;;;;;;;2.42;0.57;;;15.50;95.60;;;;;;5055456;28;20756;-76
2022/07/18 01:05:24;;;;;;;0.68;0.40;;;15.60;96.20;;;;;;5057946;28;20197;-75
2022/07/18 01:07:55;;;;;;;4.57;0.57;;;15.60;94.80;;;;;;5053349;28;20224;-76
2022/07/18 01:10:27;;;;;;;0.70;0.40;;;15.50;95.10;;;;;;5051827;28;20659;-76
2022/07/18 01:12:58;;;;;;;3.35;0.47;;;15.60;95.90;;;;;;5035034;28;20197;-76
2022/07/18 01:15:29;;;;;;;0.95;0.60;;;15.70;94.40;;;;;;5034435;28;20778;-75
2022/07/18 01:18:00;;;;;;;2.05;0.60;;;15.50;94.50;;;;;;5051370;28;20235;-76
2022/07/18 01:20:33;;;;;;;1.00;0.52;;;15.60;95.50;;;;;;5050062;28;20197;-76
2022/07/18 01:23:04;;;;;;;0.55;0.30;;;15.60;94.20;;;;;;5050418;28;20204;-77
2022/07/18 01:25:34;;;;;;;1.17;0.30;;;15.70;93.50;;;;;;5043968;28;20208;-77
2022/07/18 01:28:08;;;;;;;1.33;0.32;;;15.70;94.00;;;;;;5051319;28;20195;-77
2022/07/18 01:30:39;;;;;;;0.73;0.40;;;15.80;94.10;;;;;;5043770;28;20199;-77
2022/07/18 01:33:11;;;;;;;0.65;0.30;;;15.80;92.60;;;;;;5049077;28;20200;-77
2022/07/18 01:35:44;;;;;;;1.92;0.60;;;15.90;92.70;;;;;;5042203;28;20204;-77
2022/07/18 01:38:14;;;;;;;1.10;0.20;;;15.70;92.70;;;;;;5049760;28;20229;-78
2022/07/18 01:40:45;;;;;;;1.58;0.40;;;15.70;94.00;;;;;;5050052;28;20200;-76
2022/07/18 01:43:16;;;;;;;1.73;0.70;;;15.80;93.40;;;;;;5050252;28;20644;-76
2022/07/18 01:45:47;;;;;;;0.75;0.40;;;15.80;94.20;;;;;;5048328;28;20215;-77
2022/07/18 01:48:17;;;;;;;0.98;0.50;;;15.90;92.70;;;;;;5050433;28;20239;-77
2022/07/18 01:50:50;;;;;;;5.07;0.47;;;15.80;93.60;;;;;;5050661;28;20244;-76
2022/07/18 01:53:21;;;;;;;0.30;0.30;;;15.90;93.60;;;;;;5049487;28;20197;-76
2022/07/18 01:55:52;;;;;;;0.30;0.30;;;16.00;93.10;;;;;;5048560;28;20196;-77
2022/07/18 01:58:22;;;;;;;0.40;0.40;;;15.80;93.60;;;;;;5047141;28;20239;-76
2022/07/18 02:00:53;;;;;;;0.50;0.30;;;15.90;93.60;;;;;;5050012;28;20200;-77
2022/07/18 02:03:24;;;;;;;1.85;0.40;;;15.90;94.10;;;;;;5050366;28;20188;-77
2022/07/18 02:05:56;;;;;;;0.40;0.20;;;16.00;95.00;;;;;;5043743;28;20713;-78
2022/07/18 02:08:27;;;;;;;0.43;0.25;;;16.20;94.30;;;;;;5049124;28;20193;-77
2022/07/18 02:10:59;;;;;;;0.20;0.20;;;16.20;94.40;;;;;;5048904;28;20203;-76
2022/07/18 02:13:29;;;;;;;0.63;0.30;;;16.20;95.90;;;;;;5048654;28;20204;-76
2022/07/18 02:16:02;;;;;;;0.77;0.20;;;16.20;95.90;;;;;;5043682;28;20614;-77
2022/07/18 02:18:33;;;;;;;1.33;0.40;;;16.10;96.80;;;;;;5048264;28;20239;-77
2022/07/18 02:21:09;;;;;;;0.57;0.30;;;16.10;97.20;;;;;;5033854;28;20196;-77
2022/07/18 02:23:40;;;;;;;1.73;0.30;;;16.00;98.10;;;;;;5039629;28;20537;-78
2022/07/18 02:26:11;;;;;;;0.70;0.22;;;15.70;98.00;;;;;;5040120;28;20212;-76
2022/07/18 02:28:42;;;;;;;2.00;0.50;;;15.60;99.50;;;;;;5049976;28;20287;-76
2022/07/18 02:31:13;;;;;;;0.63;0.50;;;15.80;98.80;;;;;;5048679;28;20651;-76
2022/07/18 02:33:43;;;;;;;1.40;0.50;;;15.80;97.90;;;;;;5049892;28;20197;-76
2022/07/18 02:36:16;;;;;;;0.40;0.30;;;15.90;97.10;;;;;;5045817;28;20200;-75
2022/07/18 02:38:47;;;;;;;1.52;0.38;;;15.70;97.10;;;;;;5050184;28;20224;-76
2022/07/18 02:41:17;;;;;;;0.55;0.40;;;15.60;97.60;;;;;;5050208;28;20788;-77
2022/07/18 02:43:48;;;;;;;1.70;0.50;;;15.60;98.20;;;;;;5049551;28;20195;-76
2022/07/18 02:46:19;;;;;;;0.75;0.30;;;15.60;98.20;;;;;;5044773;28;20648;-76
2022/07/18 02:48:49;;;;;;;0.68;0.40;;;15.80;97.30;;;;;;5048464;28;20196;-76
2022/07/18 02:51:22;;;;;;;2.45;0.43;;;15.90;96.10;;;;;;5046740;28;20208;-76
2022/07/18 02:53:53;;;;;;;0.55;0.30;;;15.80;93.90;;;;;;5049502;28;20208;-76
2022/07/18 02:56:24;;;;;;;1.13;0.40;;;15.70;94.50;;;;;;5049929;28;20540;-76
2022/07/18 02:58:54;;;;;;;1.95;0.40;;;15.60;95.40;;;;;;5049216;28;20216;-75
2022/07/18 03:01:25;;;;;;;1.05;0.60;;;15.70;94.70;;;;;;5049049;28;20651;-76
2022/07/18 03:03:57;;;;;;;0.52;0.47;;;15.70;94.70;;;;;;5049410;28;20196;-76
2022/07/18 03:06:29;;;;;;;3.75;0.70;;;15.80;93.20;;;;;;5042048;28;20205;-75
2022/07/18 03:09:00;;;;;;;3.40;0.30;;;15.70;92.70;;;;;;5048939;28;20196;-75
2022/07/18 03:11:31;;;;;;;1.55;0.63;;;15.70;92.40;;;;;;5049149;28;20189;-76
2022/07/18 03:14:01;;;;;;;1.75;0.28;;;15.60;92.60;;;;;;5049282;28;20593;-75
2022/07/18 03:16:32;;;;;;;0.60;0.60;;;15.60;92.00;;;;;;5046934;28;20556;-75
2022/07/18 03:19:03;;;;;;;1.42;0.43;;;15.60;91.20;;;;;;5049432;28;20591;-75
2022/07/18 03:21:35;;;;;;;2.10;0.50;;;15.50;90.80;;;;;;5051836;28;20258;-76
2022/07/18 03:24:06;;;;;;;0.60;0.38;;;15.50;90.60;;;;;;5047060;28;20200;-76
2022/07/18 03:26:37;;;;;;;0.63;0.30;;;15.50;91.90;;;;;;5044351;28;20216;-75
2022/07/18 03:29:08;;;;;;;1.40;0.35;;;15.60;90.00;;;;;;5053885;28;20687;-76
2022/07/18 03:31:39;;;;;;;4.35;0.40;;;15.60;86.00;;;;;;5052537;28;20258;-76
2022/07/18 03:34:09;;;;;;;0.47;0.30;;;15.50;85.50;;;;;;5050721;28;20193;-76
2022/07/18 03:36:42;;;;;;;1.10;0.50;;;15.60;84.20;;;;;;5052547;28;20235;-76
2022/07/18 03:39:13;;;;;;;1.00;0.50;;;15.60;87.30;;;;;;5056377;28;20289;-77
2022/07/18 03:41:44;;;;;;;2.58;0.50;;;15.60;86.80;;;;;;5052894;28;20197;-76
2022/07/18 03:44:15;;;;;;;2.88;0.60;;;15.70;85.20;;;;;;5053247;28;20656;-76
2022/07/18 03:46:45;;;;;;;1.85;0.63;;;15.80;83.10;;;;;;5053161;28;20660;-76
2022/07/18 03:49:16;;;;;;;1.42;0.73;;;15.70;81.20;;;;;;5052920;28;20195;-77
2022/07/18 03:51:49;;;;;;;0.35;0.20;;;15.90;81.60;;;;;;5055619;28;20702;-76
2022/07/18 03:54:20;;;;;;;2.10;0.40;;;15.90;79.20;;;;;;5046122;28;20203;-76
2022/07/18 03:56:50;;;;;;;1.92;0.43;;;15.90;77.50;;;;;;5049400;28;20202;-76
2022/07/18 03:59:21;;;;;;;1.45;0.40;;;15.90;78.50;;;;;;5052717;28;20251;-76
2022/07/18 04:01:52;;;;;;;1.13;0.60;;;15.80;79.40;;;;;;5052117;28;20193;-75
2022/07/18 04:04:23;;;;;;;2.63;0.45;;;15.80;78.60;;;;;;5045037;28;20193;-75
2022/07/18 04:06:58;;;;;;;2.08;0.50;;;15.80;79.70;;;;;;5048805;28;20660;-76
2022/07/18 04:09:29;;;;;;;1.65;0.40;;;15.80;78.80;;;;;;5045058;28;20236;-75
2022/07/18 04:12:00;;;;;;;0.90;0.40;;;15.70;78.30;;;;;;5051385;28;20196;-75
2022/07/18 04:14:31;;;;;;;1.35;0.60;;;15.70;78.40;;;;;;5042827;28;20225;-75
2022/07/18 04:17:01;;;;;;;1.27;0.47;;;15.60;79.30;;;;;;5051847;28;20678;-76
2022/07/18 04:19:34;;;;;;;1.45;0.40;;;15.70;78.10;;;;;;5050302;28;21479;-76
2022/07/18 04:22:06;;;;;;;2.35;0.60;;;15.70;78.50;;;;;;5052240;28;20196;-77
2022/07/18 04:24:37;;;;;;;3.17;0.50;;;15.70;77.90;;;;;;5052628;28;20993;-76
2022/07/18 04:27:08;;;;;;;1.63;0.63;;;15.70;77.50;;;;;;5052261;28;20188;-76
2022/07/18 04:29:38;;;;;;;0.60;0.50;;;15.70;79.20;;;;;;5052142;28;20199;-76
2022/07/18 04:32:09;;;;;;;1.35;0.55;;;15.70;77.80;;;;;;5050633;28;20208;-76
2022/07/18 04:34:40;;;;;;;1.27;0.57;;;15.80;76.90;;;;;;5052275;28;20630;-76
2022/07/18 04:37:13;;;;;;;2.20;0.57;;;15.70;75.30;;;;;;5052180;28;20541;-76
2022/07/18 04:39:43;;;;;;;0.43;0.38;;;15.70;76.20;;;;;;5052723;28;20232;-76
2022/07/18 04:42:14;;;;;;;1.25;0.47;;;15.60;74.00;;;;;;5054490;28;20264;-77
2022/07/18 04:44:47;;;;;;;1.10;0.52;;;15.70;74.10;;;;;;5052620;28;20201;-76
2022/07/18 04:47:18;;;;;;;1.08;0.57;;;15.60;73.70;;;;;;5053469;28;20660;-76
2022/07/18 04:49:49;;;;;;;1.60;0.55;;;15.70;74.50;;;;;;5050625;28;20196;-76
2022/07/18 04:52:22;;;;;;;0.90;0.50;;;15.60;73.60;;;;;;5052389;28;20718;-76
2022/07/18 04:54:52;;;;;;;0.90;0.50;;;15.70;73.10;;;;;;5051799;28;20193;-77
2022/07/18 04:57:23;;;;;;;1.58;0.45;;;15.60;71.80;;;;;;5052057;28;20201;-76
2022/07/18 04:59:54;;;;;;;1.60;0.50;;;15.60;72.20;;;;;;5051570;28;20220;-77
2022/07/18 05:02:24;;;;;;;1.40;0.68;;;15.60;72.20;;;;;;5046747;28;20675;-77
2022/07/18 05:04:55;;;;;;;0.88;0.40;;;15.60;73.80;;;;;;5049802;28;20560;-76
2022/07/18 05:07:28;;;;;;;1.40;0.40;;;15.60;71.10;;;;;;5068466;28;20562;-76
2022/07/18 05:09:58;;;;;;;1.45;0.50;;;15.70;70.20;;;;;;5051561;28;20207;-76
2022/07/18 05:12:29;;;;;;;1.20;0.50;;;15.60;71.10;;;;;;5051730;28;20346;-76
2022/07/18 05:15:00;;;;;;;1.35;0.40;;;15.60;69.80;;;;;;5058160;28;20196;-76
2022/07/18 05:17:30;;;;;;;1.55;0.40;;;15.60;66.60;;;;;;5051835;28;20211;-76
2022/07/18 05:20:01;;;;;;;2.13;0.30;;;15.70;63.90;;;;;;5050982;28;20258;-76
2022/07/18 05:22:34;;;;;;;1.58;0.32;;;15.70;64.70;;;;;;5039708;28;20224;-77
2022/07/18 05:25:06;;;;;;;0.50;0.30;;;15.80;61.70;;;;;;5048992;28;20197;-76
2022/07/18 05:27:37;;;;;;;0.40;0.30;;;15.80;63.30;;;;;;5049249;28;20545;-76
2022/07/18 05:30:10;;;;;;;0.75;0.20;;;15.80;60.40;;;;;;5050917;28;20227;-77
2022/07/18 05:32:41;;;;;;;0.90;0.50;;;15.70;60.40;;;;;;5051258;28;20279;-76
2022/07/18 05:35:13;;;;;;;0.63;0.50;;;15.80;62.30;;;;;;5051089;28;20201;-77
2022/07/18 05:37:46;;;;;;;1.35;0.50;;;15.90;64.50;;;;;;5048849;28;20225;-76
2022/07/18 05:40:20;;;;;;;1.00;0.35;;;15.80;65.30;;;;;;5043671;28;20197;-76
2022/07/18 05:42:51;;;;;;;0.57;0.30;;;15.90;67.80;;;;;;5051601;28;20196;-76
2022/07/18 05:45:22;;;;;;;1.80;0.47;;;15.90;66.30;;;;;;5050849;28;20193;-76
2022/07/18 05:47:53;;;;;;;1.00;0.30;;;15.80;66.90;;;;;;5051091;28;20656;-77
2022/07/18 05:50:24;;;;;;;2.90;0.57;;;15.90;68.60;;;;;;5050714;28;20806;-76
2022/07/18 05:52:57;;;;;;;0.93;0.40;;;16.00;70.60;;;;;;5059457;28;20196;-77
2022/07/18 05:55:28;;;;;;;1.35;0.50;;;16.00;66.10;;;;;;5050188;28;20185;-77
2022/07/18 05:57:59;;;;;;;2.05;0.43;;;16.00;65.70;;;;;;5047982;28;20254;-77
2022/07/18 06:00:29;;;;;;;1.70;0.60;;;16.00;69.50;;;;;;5055097;28;20195;-77
2022/07/18 06:03:00;;;;;;;3.72;0.50;;;15.90;71.40;;;;;;5053618;28;20212;-77
2022/07/18 06:05:31;;;;;;;0.82;0.50;;;15.90;73.90;;;;;;5048994;28;20224;-76
2022/07/18 06:08:03;;;;;;;1.70;0.52;;;15.80;75.90;;;;;;5050531;28;20195;-76
2022/07/18 06:10:34;;;;;;;2.05;0.50;;;15.60;75.10;;;;;;5042579;28;20189;-76
2022/07/18 06:13:05;;;;;;;1.00;0.45;;;15.60;74.60;;;;;;5047689;28;20211;-77
2022/07/18 06:15:36;;;;;;;0.70;0.38;;;15.60;74.00;;;;;;5050404;28;20199;-76
2022/07/18 06:18:07;;;;;;;1.15;0.52;;;15.60;74.90;;;;;;5049951;28;20578;-78
2022/07/18 06:20:37;;;;;;;1.15;0.45;;;15.60;73.80;;;;;;5050902;28;20234;-77
2022/07/18 06:23:10;;;;;;;3.22;0.80;;;15.60;73.90;;;;;;5049791;28;20717;-77
2022/07/18 06:25:40;;;;;;;0.93;0.50;;;15.60;72.90;;;;;;5050350;28;20660;-76
2022/07/18 06:28:11;;;;;;;1.98;1.00;;;15.70;74.20;;;;;;5050092;28;20196;-77
2022/07/18 06:30:42;;;;;;;1.98;0.90;;;15.70;74.70;;;;;;5048998;28;20200;-76
2022/07/18 06:33:14;;;;;;;1.00;0.40;;;15.70;74.50;;;;;;5050301;28;20203;-76
2022/07/18 06:35:46;;;;;;;1.45;1.25;;;15.80;75.00;;;;;;5050364;28;20203;-75
2022/07/18 06:38:19;;;;;;;1.88;0.90;;;15.80;76.30;;;;;;5049543;28;20224;-75
2022/07/18 06:40:49;;;;;;;1.05;0.60;;;15.70;75.60;;;;;;5049146;28;20197;-75
2022/07/18 06:43:21;;;;;;;0.60;0.60;;;15.60;74.60;;;;;;5050138;28;20212;-75
2022/07/18 06:45:52;;;;;;;2.00;0.73;;;15.50;74.30;;;;;;5050132;28;20231;-74
2022/07/18 06:48:22;;;;;;;2.83;0.80;;;15.30;75.20;;;;;;5049399;28;20197;-74
2022/07/18 06:50:53;;;;;;;1.17;0.65;;;15.30;76.40;;;;;;5049586;28;20235;-74
2022/07/18 06:53:27;;;;;;;0.68;0.55;;;15.20;76.80;;;;;;5049883;28;20678;-74
2022/07/18 06:55:58;;;;;;;0.88;0.70;;;15.20;78.70;;;;;;5049157;28;20196;-73
2022/07/18 06:58:30;;;;;;;1.58;0.70;;;15.00;76.70;;;;;;5048947;28;20200;-75
2022/07/18 07:01:01;;;;;;;1.98;0.80;;;15.00;77.70;;;;;;5049660;28;20200;-76
2022/07/18 07:03:32;;;;;;;1.52;0.80;;;14.90;78.40;;;;;;5047995;28;20199;-77
2022/07/18 07:06:02;;;;;;;1.65;0.85;;;14.90;80.70;;;;;;5046099;28;20659;-77
2022/07/18 07:08:35;;;;;;;0.93;0.88;;;14.80;82.30;;;;;;5041679;28;20203;-77
2022/07/18 07:11:06;;;;;;;1.80;0.90;;;14.80;81.60;;;;;;5049329;28;20193;-77
2022/07/18 07:13:36;;;;;;;2.72;0.90;;;14.80;83.10;;;;;;5048796;28;20200;-77
2022/07/18 07:16:07;;;;;;;1.98;1.15;;;14.70;82.00;;;;;;5047016;28;20195;-76
2022/07/18 07:18:38;;;;;;;2.20;1.10;;;14.60;83.30;;;;;;5049103;28;20592;-77
2022/07/18 07:21:09;;;;;;;2.40;1.20;;;14.60;83.40;;;;;;5049196;28;20567;-78
2022/07/18 07:23:42;;;;;;;1.70;1.00;;;14.50;84.60;;;;;;5049650;28;20188;-77
2022/07/18 07:26:12;;;;;;;4.25;1.38;;;14.50;85.30;;;;;;5049626;28;20200;-76
2022/07/18 07:28:44;;;;;;;1.70;1.13;;;14.50;86.40;;;;;;5049473;28;20228;-77
2022/07/18 07:31:14;;;;;;;3.15;1.20;;;14.40;87.40;;;;;;5048834;28;20189;-75
2022/07/18 07:33:46;;;;;;;2.22;1.20;;;14.40;88.80;;;;;;5049233;28;20201;-76
2022/07/18 07:36:16;;;;;;;4.00;1.20;;;14.30;89.70;;;;;;5049481;28;20246;-78
2022/07/18 07:38:50;;;;;;;2.85;1.40;;;14.30;89.60;;;;;;5045808;28;20240;-78
2022/07/18 07:41:21;;;;;;;1.55;1.08;;;14.30;90.00;;;;;;5043820;28;20193;-76
2022/07/18 07:43:51;;;;;;;2.50;1.40;;;14.20;88.70;;;;;;5049723;28;20197;-76
2022/07/18 07:46:22;;;;;;;4.03;1.45;;;14.20;90.20;;;;;;5049098;28;20205;-77
2022/07/18 07:48:53;;;;;;;3.10;1.40;;;14.20;90.50;;;;;;5048896;28;20196;-77
2022/07/18 07:51:23;;;;;;;3.63;1.60;;;14.10;90.70;;;;;;5048177;28;20196;-77
2022/07/18 07:53:56;;;;;;;2.78;1.60;;;14.10;91.10;;;;;;5049383;28;20196;-78
2022/07/18 07:56:27;;;;;;;1.83;1.20;;;14.00;91.50;;;;;;5042059;28;20315;-76
2022/07/18 07:58:57;;;;;;;2.45;1.20;;;14.00;92.20;;;;;;5048982;28;20221;-77
2022/07/18 08:01:28;;;;;;;2.22;1.35;;;14.00;93.50;;;;;;5049083;28;20189;-76
2022/07/18 08:03:59;;;;;;;3.20;1.55;;;14.10;93.10;;;;;;5049306;28;20207;-77
2022/07/18 08:06:29;;;;;;;3.97;1.65;;;14.00;93.70;;;;;;5049957;28;20582;-77
2022/07/18 08:09:02;;;;;;;4.88;1.75;;;14.00;93.90;;;;;;5057827;28;20200;-78
2022/07/18 08:11:33;;;;;;;2.72;1.40;;;14.00;94.30;;;;;;5060476;28;20616;-78
2022/07/18 08:14:03;;;;;;;3.35;1.58;;;13.90;94.40;;;;;;5054387;28;20193;-73
2022/07/18 08:16:34;;;;;;;3.17;1.60;;;13.90;95.50;;;;;;5062685;28;20200;-77
2022/07/18 08:19:05;;;;;;;4.13;2.03;;;13.90;96.20;;;;;;5054604;28;20270;-78
2022/07/18 08:21:35;;;;;;;2.72;1.83;;;13.90;96.80;;;;;;5048539;28;20221;-76
2022/07/18 08:24:08;;;;;;;3.60;1.95;;;13.90;97.90;;;;;;5053822;28;20204;-77
2022/07/18 08:26:39;;;;;;;4.20;1.60;;;14.00;99.30;;;;;;5053870;28;20196;-77
2022/07/18 08:29:09;;;;;;;3.03;1.52;;;13.90;99.20;;;;;;5053492;28;20233;-77
2022/07/18 08:31:40;;;;;;;2.53;1.48;;;13.80;99.10;;;;;;5053148;28;20197;-78
2022/07/18 08:34:11;;;;;;;3.22;1.60;;;13.80;99.80;;;;;;5048462;28;20200;-74
2022/07/18 08:36:41;;;;;;;3.55;1.80;;;13.80;99.80;;;;;;5052181;28;20197;-74
2022/07/18 08:39:14;;;;;;;4.22;1.83;;;13.80;99.90;;;;;;5071336;28;20238;-74
2022/07/18 08:41:47;;;;;;;4.88;2.00;;;13.80;99.90;;;;;;5054445;28;20199;-74
2022/07/18 08:44:18;;;;;;;2.25;1.40;;;13.70;99.90;;;;;;5052642;28;20281;-73
2022/07/18 08:46:53;;;;;;;3.55;1.70;;;13.70;99.90;;;;;;5047785;28;20196;-76
2022/07/18 08:49:25;;;;;;;5.18;2.30;;;13.70;99.90;;;;;;5071674;28;20212;-75
2022/07/18 08:51:56;;;;;;;2.25;1.48;;;13.70;99.90;;;;;;5060413;28;20201;-73
2022/07/18 08:54:28;;;;;;;3.42;1.35;;;13.60;99.90;;;;;;5043853;28;20201;-73
2022/07/18 08:56:59;;;;;;;3.85;1.60;;;13.60;99.90;;;;;;5051966;28;20196;-72
2022/07/18 08:59:30;;;;;;;4.35;2.00;;;13.50;99.90;;;;;;5046356;28;20227;-76
2022/07/18 09:02:00;;;;;;;4.53;2.20;;;13.60;99.90;;;;;;5051750;28;20189;-74
2022/07/18 09:04:39;;;;;;;2.35;1.60;;;13.50;99.90;;;;;;5044823;28;20733;-74
2022/07/18 09:07:11;;;;;;;4.90;2.30;;;13.60;99.90;;;;;;5051893;28;20655;-74
2022/07/18 09:09:57;;;;;;;4.38;2.50;;;13.50;99.90;;;;;;5047406;28;20216;-74
2022/07/18 09:12:30;;;;;;;5.30;2.28;;;13.40;99.90;;;;;;5045451;28;20603;-74
2022/07/18 09:15:08;;;;;;;4.65;1.88;;;13.40;99.90;;;;;;5051730;28;20193;-74
2022/07/18 09:17:39;;;;;;;4.97;1.80;;;13.40;99.90;;;;;;5051831;28;20192;-75
2022/07/18 09:20:14;;;;;;;2.80;1.92;;;13.30;99.90;;;;;;5046717;28;20220;-75
2022/07/18 09:22:47;;;;;;;4.55;2.08;;;13.30;99.90;;;;;;5051632;28;20247;-73
2022/07/18 09:25:21;;;;;;;2.75;1.85;;;13.30;99.90;;;;;;5043955;28;20240;-73
2022/07/18 09:27:53;;;;;;;3.22;1.60;;;13.20;99.90;;;;;;5048237;28;20677;-73
2022/07/18 09:30:28;;;;;;;3.20;1.60;;;13.30;99.90;;;;;;5048565;28;20197;-73
2022/07/18 09:33:09;;;;;;;2.47;1.70;;;13.20;99.90;;;;;;5051555;28;20283;-74
2022/07/18 09:35:44;;;;;;;5.28;1.77;;;13.20;99.90;;;;;;5053703;28;20215;-73
2022/07/18 09:38:16;;;;;;;4.50;1.98;;;13.10;99.90;;;;;;5043729;28;20581;-73
2022/07/18 09:40:51;;;;;;;4.40;2.00;;;13.10;99.90;;;;;;5051298;28;20775;-73
2022/07/18 09:43:23;;;;;;;1.90;1.52;;;13.10;99.90;;;;;;5044747;28;20192;-73
2022/07/18 09:45:55;;;;;;;2.28;1.60;;;13.10;99.90;;;;;;5050939;28;20194;-74
2022/07/18 09:48:27;;;;;;;3.03;1.70;;;13.10;99.90;;;;;;5043485;28;20594;-73
2022/07/18 09:50:59;;;;;;;2.15;1.48;;;13.10;99.90;;;;;;5050932;28;20219;-73
2022/07/18 09:53:32;;;;;;;3.42;2.30;;;13.00;99.90;;;;;;5049219;28;20228;-75
2022/07/18 09:56:06;;;;;;;3.25;2.00;;;13.00;99.90;;;;;;5043299;28;20193;-75
2022/07/18 09:58:38;;;;;;;3.65;2.33;;;13.00;99.90;;;;;;5043166;28;20200;-77
2022/07/18 10:01:10;;;;;;;2.70;1.90;;;12.90;99.90;;;;;;5047623;28;20225;-76
2022/07/18 10:03:41;;;;;;;2.70;1.90;;;12.90;99.90;;;;;;5050731;28;20189;-77
2022/07/18 10:06:12;;;;;;;2.97;1.67;;;12.90;99.90;;;;;;5050479;28;20200;-77
2022/07/18 10:08:46;;;;;;;2.17;1.63;;;12.80;99.90;;;;;;5038285;28;20192;-77
2022/07/18 10:11:19;;;;;;;4.75;1.60;;;12.80;99.90;;;;;;5040415;28;20340;-77
2022/07/18 10:13:51;;;;;;;2.55;1.58;;;12.80;99.90;;;;;;5039687;28;20594;-76
2022/07/18 10:16:22;;;;;;;3.08;1.40;;;12.70;99.90;;;;;;5044871;28;20580;-76
2022/07/18 10:18:52;;;;;;;3.30;1.52;;;12.70;99.90;;;;;;5067981;28;20195;-77
2022/07/18 10:21:24;;;;;;;3.42;1.60;;;12.70;99.90;;;;;;5067908;28;20301;-76
2022/07/18 10:23:55;;;;;;;2.83;1.60;;;12.50;99.90;;;;;;5057851;28;20189;-77
2022/07/18 10:26:29;;;;;;;2.13;1.35;;;12.50;99.90;;;;;;5048105;28;20222;-74
2022/07/18 10:29:19;;;;;;;3.53;1.40;;;12.50;99.90;;;;;;5045502;28;20212;-74
2022/07/18 10:32:08;;;;;;;2.08;1.42;;;12.50;99.90;;;;;;5048037;28;20584;-74
2022/07/18 10:34:46;;;;;;;3.30;1.63;;;12.50;99.90;;;;;;5049538;28;20228;-75
2022/07/18 10:37:18;;;;;;;2.10;1.40;;;12.40;99.90;;;;;;5042428;28;20195;-74
2022/07/18 10:39:55;;;;;;;2.72;1.50;;;12.40;99.90;;;;;;5048075;28;20231;-74
2022/07/18 10:42:30;;;;;;;4.00;1.70;;;12.30;99.90;;;;;;5041432;28;20197;-74
2022/07/18 10:45:26;;;;;;;4.63;2.20;;;12.40;99.90;;;;;;5046243;28;20199;-74
2022/07/18 10:47:59;;;;;;;3.47;2.00;;;12.30;99.90;;;;;;5050097;28;20193;-74
2022/07/18 10:50:30;;;;;;;2.35;1.50;;;12.30;99.90;;;;;;5042074;28;20189;-74
2022/07/18 10:53:06;;;;;;;1.30;1.00;;;12.30;99.90;;;;;;5050187;28;20200;-75
2022/07/18 10:55:40;;;;;;;4.75;1.48;;;12.30;99.90;;;;;;5042158;28;20717;-74
2022/07/18 10:58:25;;;;;;;2.35;1.20;;;12.20;99.90;;;;;;5044661;28;20275;-75
2022/07/18 11:01:04;;;;;;;3.35;1.42;;;12.30;99.90;;;;;;5063721;28;20226;-74
2022/07/18 11:03:35;;;;;;;2.78;1.55;;;12.30;99.90;;;;;;5043455;28;20686;-74
2022/07/18 11:06:13;;;;;;;2.88;1.58;;;12.30;99.90;;;;;;5049924;28;20591;-74
2022/07/18 11:08:44;;;;;;;2.03;1.40;;;12.30;99.90;;;;;;5048929;28;20281;-74
2022/07/18 11:11:19;;;;;;;2.85;1.50;;;12.30;99.90;;;;;;5044539;28;20205;-75
2022/07/18 11:13:52;;;;;;;2.05;1.50;;;12.30;99.90;;;;;;5048246;28;20203;-82
2022/07/18 11:16:28;;;;;;;2.72;1.35;;;12.30;99.90;;;;;;5045429;28;20204;-75
2022/07/18 11:19:27;;;;;;;3.28;1.67;;;12.40;99.90;;;;;;5047538;28;20201;-75
2022/07/18 11:22:04;;;;;;;1.75;1.35;;;12.40;99.90;;;;;;5016610;28;20200;-76
2022/07/18 11:24:43;;;;;;;3.72;1.50;;;12.40;99.90;;;;;;5043017;28;20580;-75
2022/07/18 11:27:19;;;;;;;3.58;1.85;;;12.40;99.90;;;;;;5046281;28;20192;-75
2022/07/18 11:30:04;;;;;;;2.85;1.77;;;12.40;99.90;;;;;;5052461;28;20196;-75
2022/07/18 11:32:34;;;;;;;3.70;1.40;;;12.30;99.90;;;;;;5049275;28;20626;-75
2022/07/18 11:35:09;;;;;;;3.67;1.50;;;12.30;99.90;;;;;;5049699;28;20660;-75
2022/07/18 11:37:40;;;;;;;2.88;1.67;;;12.30;99.90;;;;;;5044480;28;20235;-75
2022/07/18 11:40:12;;;;;;;3.33;1.67;;;12.40;99.90;;;;;;5050848;28;20226;-76
2022/07/18 11:42:43;;;;;;;2.67;1.33;;;12.30;99.90;;;;;;5051335;28;20594;-76
2022/07/18 11:45:22;;;;;;;3.80;1.70;;;12.30;99.90;;;;;;5053318;28;20204;-75
2022/07/18 11:47:54;;;;;;;1.50;1.05;;;12.30;99.90;;;;;;5053138;28;20261;-75
2022/07/18 11:50:38;;;;;;;2.05;1.30;;;12.30;99.90;;;;;;5053264;28;20269;-75
2022/07/18 11:53:08;;;;;;;2.33;1.10;;;12.30;99.90;;;;;;5046068;28;20201;-75
2022/07/18 11:55:40;;;;;;;2.92;1.30;;;12.40;99.90;;;;;;5035949;28;20189;-74
2022/07/18 11:58:12;;;;;;;4.60;1.40;;;12.40;99.90;;;;;;5046621;28;20201;-76
2022/07/18 12:00:46;;;;;;;2.65;1.38;;;12.30;99.90;;;;;;5044607;28;20232;-76
2022/07/18 12:03:18;;;;;;;3.03;1.45;;;12.20;99.90;;;;;;5052894;28;20201;-75
2022/07/18 12:05:50;;;;;;;2.45;1.38;;;12.30;99.90;;;;;;5045300;28;20596;-75
2022/07/18 12:08:35;;;;;;;1.98;1.30;;;12.30;99.90;;;;;;5053288;28;20197;-75
2022/07/18 12:11:29;;;;;;;1.50;1.00;;;12.30;99.90;;;;;;5051387;28;20628;-75
2022/07/18 12:14:01;;;;;;;2.15;1.15;;;12.30;99.90;;;;;;5051575;28;20193;-74
2022/07/18 12:16:36;;;;;;;2.65;1.15;;;12.30;99.90;;;;;;5043093;28;20201;-74
2022/07/18 12:19:12;;;;;;;3.25;1.23;;;12.40;99.90;;;;;;5044965;28;20702;-74
2022/07/18 12:21:51;;;;;;;2.42;1.38;;;12.40;99.90;;;;;;5052618;28;20708;-74
2022/07/18 12:24:26;;;;;;;1.95;1.20;;;12.40;99.90;;;;;;5046744;28;20195;-74
2022/07/18 12:27:19;;;;;;;1.70;1.10;;;12.40;99.90;;;;;;5049061;28;20232;-73
2022/07/18 12:30:09;;;;;;;2.15;1.08;;;12.30;99.90;;;;;;5049410;28;20193;-73
2022/07/18 12:32:46;;;;;;;3.15;1.13;;;12.30;99.90;;;;;;5055389;28;20203;-73
2022/07/18 12:35:19;;;;;;;2.40;1.20;;;12.30;99.90;;;;;;5071439;28;20183;-74
2022/07/18 12:37:57;;;;;;;1.73;1.10;;;12.20;99.90;;;;;;5067373;28;20224;-73
2022/07/18 12:40:29;;;;;;;2.70;1.13;;;12.20;99.90;;;;;;5053399;28;20583;-73
2022/07/18 12:43:08;;;;;;;2.28;1.20;;;12.20;99.90;;;;;;5051693;28;20217;-73
2022/07/18 12:45:39;;;;;;;2.22;1.38;;;12.20;99.90;;;;;;5045657;28;20202;-73
2022/07/18 12:48:13;;;;;;;2.83;1.05;;;12.20;99.90;;;;;;5052318;28;20189;-74
2022/07/18 12:50:44;;;;;;;2.00;1.30;;;12.10;99.90;;;;;;5044838;28;20605;-74
2022/07/18 12:53:16;;;;;;;2.80;1.02;;;12.10;99.90;;;;;;5050750;28;20633;-73
2022/07/18 12:55:47;;;;;;;3.38;1.30;;;12.10;99.90;;;;;;5044352;28;20188;-74
2022/07/18 12:58:17;;;;;;;2.90;1.20;;;12.10;99.90;;;;;;5048254;28;20200;-74
2022/07/18 13:00:50;;;;;;;2.83;1.40;;;12.20;99.90;;;;;;5051005;28;20221;-74
2022/07/18 13:03:22;;;;;;;2.45;1.33;;;12.20;99.90;;;;;;5051958;28;20196;-78
2022/07/18 13:05:53;;;;;;;2.17;1.15;;;12.20;99.90;;;;;;5044218;28;20628;-75
2022/07/18 13:08:27;;;;;;;2.83;1.48;;;12.20;99.90;;;;;;5047581;28;20197;-74
2022/07/18 13:10:57;;;;;;;3.58;1.23;;;12.20;99.90;;;;;;5043696;28;20501;-74
2022/07/18 13:13:28;;;;;;;3.45;1.48;;;12.20;99.90;;;;;;5047313;28;20258;-75
2022/07/18 13:15:59;;;;;;;2.80;1.20;;;12.20;99.90;;;;;;5049183;28;20303;-74
2022/07/18 13:18:32;;;;;;;2.00;1.23;;;12.10;99.90;;;;;;5047921;28;20200;-74